Time;durP1;ratioP1;P1;durP2;ratioP2;P2;SDS_P1;SDS_P2;PMS_P1;PMS_P2;Temp;Humidity;BMP_temperature;BMP_pressure;BME280_temperature;BME280_humidity;BME280_pressure;Samples;Min_cycle;Max_cycle;Signal;HPM_P1;HPM_P2
2022/07/30 00:02:02;;;;;;;4.30;3.35;;;;;;;;;;5071793;28;20040;-78
2022/07/30 00:04:28;;;;;;;5.03;3.03;;;;;;;;;;5071677;28;20064;-79
2022/07/30 00:06:54;;;;;;;6.45;3.00;;;;;;;;;;5071647;28;20067;-77
2022/07/30 00:09:20;;;;;;;4.43;2.85;;;;;;;;;;5087619;28;20109;-77
2022/07/30 00:11:46;;;;;;;3.58;2.88;;;;;;;;;;5070928;28;20029;-78
2022/07/30 00:14:12;;;;;;;3.58;2.70;;;;;;;;;;5071139;28;20424;-77
2022/07/30 00:16:39;;;;;;;7.57;3.10;;;;;;;;;;5086365;28;20037;-77
2022/07/30 00:19:05;;;;;;;3.45;2.80;;;;;;;;;;5071303;28;20541;-77
2022/07/30 00:21:31;;;;;;;5.22;2.95;;;;;;;;;;5071494;28;20064;-77
2022/07/30 00:23:57;;;;;;;5.03;3.15;;;;;;;;;;5087222;28;20418;-77
2022/07/30 00:26:22;;;;;;;3.30;3.00;;;;;;;;;;5086199;28;20490;-77
2022/07/30 00:28:48;;;;;;;4.72;2.97;;;;;;;;;;5071516;28;20453;-77
2022/07/30 00:31:14;;;;;;;4.32;2.80;;;;;;;;;;5071633;28;20032;-78
2022/07/30 00:33:40;;;;;;;4.30;2.92;;;;;;;;;;5071599;28;20032;-77
2022/07/30 00:36:06;;;;;;;5.30;3.17;;;;;;;;;;5067713;28;20075;-77
2022/07/30 00:38:32;;;;;;;3.67;3.08;;;;;;;;;;5068674;28;20047;-78
2022/07/30 00:40:58;;;;;;;5.32;3.08;;;;;;;;;;5087281;28;20398;-77
2022/07/30 00:43:24;;;;;;;4.63;3.03;;;;;;;;;;5071461;28;20040;-77
2022/07/30 00:45:50;;;;;;;4.47;3.22;;;;;;;;;;5064885;28;20087;-79
2022/07/30 00:48:16;;;;;;;4.78;3.47;;;;;;;;;;5053502;28;20059;-78
2022/07/30 00:50:43;;;;;;;3.42;3.10;;;;;;;;;;5041362;28;20487;-78
2022/07/30 00:53:09;;;;;;;3.60;3.30;;;;;;;;;;5069940;28;20119;-78
2022/07/30 00:55:35;;;;;;;3.60;3.30;;;;;;;;;;5064822;28;20537;-79
2022/07/30 00:58:01;;;;;;;4.35;3.45;;;;;;;;;;5070713;28;20038;-78
2022/07/30 01:00:27;;;;;;;5.10;3.40;;;;;;;;;;5086089;28;20031;-77
2022/07/30 01:02:53;;;;;;;3.72;3.33;;;;;;;;;;5090629;28;20064;-78
2022/07/30 01:05:20;;;;;;;4.65;3.42;;;;;;;;;;5090611;28;20123;-77
2022/07/30 01:07:46;;;;;;;5.63;3.08;;;;;;;;;;5090831;28;20028;-78
2022/07/30 01:10:13;;;;;;;3.55;3.03;;;;;;;;;;5074083;28;20116;-78
2022/07/30 01:12:39;;;;;;;4.28;3.53;;;;;;;;;;5056948;28;20064;-78
2022/07/30 01:15:07;;;;;;;5.72;3.60;;;;;;;;;;5055814;28;20115;-78
2022/07/30 01:17:33;;;;;;;5.00;3.53;;;;;;;;;;5075212;28;20256;-78
2022/07/30 01:20:01;;;;;;;4.07;3.53;;;;;;;;;;5094301;28;20066;-77
2022/07/30 01:22:27;;;;;;;4.47;3.22;;;;;;;;;;5094962;28;20028;-79
2022/07/30 01:25:03;;;;;;;5.90;3.38;;;;;;;;;;5075892;28;20043;-78
2022/07/30 01:27:40;;;;;;;4.00;3.70;;;;;;;;;;5076531;28;20097;-77
2022/07/30 01:30:07;;;;;;;3.50;3.20;;;;;;;;;;5072436;28;20032;-77
2022/07/30 01:32:34;;;;;;;3.95;3.50;;;;;;;;;;5074432;28;20107;-78
2022/07/30 01:35:04;;;;;;;4.05;3.50;;;;;;;;;;5088393;28;20055;-78
2022/07/30 01:37:31;;;;;;;4.13;3.47;;;;;;;;;;5073639;28;20036;-77
2022/07/30 01:39:57;;;;;;;4.40;3.85;;;;;;;;;;5055338;28;20051;-78
2022/07/30 01:42:24;;;;;;;5.90;3.60;;;;;;;;;;5073948;28;20044;-78
2022/07/30 01:44:50;;;;;;;4.70;3.42;;;;;;;;;;5073246;28;20123;-78
2022/07/30 01:47:16;;;;;;;7.05;3.47;;;;;;;;;;5089921;28;20131;-78
2022/07/30 01:49:45;;;;;;;5.35;3.33;;;;;;;;;;5089838;28;20033;-78
2022/07/30 01:52:11;;;;;;;4.32;3.22;;;;;;;;;;5086025;28;20228;-77
2022/07/30 01:54:38;;;;;;;3.95;3.55;;;;;;;;;;5089087;28;20036;-77
2022/07/30 01:57:05;;;;;;;3.72;3.33;;;;;;;;;;5073594;28;20040;-78
2022/07/30 01:59:33;;;;;;;4.40;3.28;;;;;;;;;;5056717;28;20094;-77
2022/07/30 02:01:59;;;;;;;3.58;3.28;;;;;;;;;;5061966;28;20064;-78
2022/07/30 02:04:26;;;;;;;4.95;3.58;;;;;;;;;;5069368;28;20086;-78
2022/07/30 02:06:59;;;;;;;3.72;3.30;;;;;;;;;;5055754;28;20482;-77
2022/07/30 02:09:28;;;;;;;4.78;3.58;;;;;;;;;;5073214;28;20483;-78
2022/07/30 02:14:49;;;;;;;3.50;3.20;;;;;;;;;;5056040;28;20083;-77
2022/07/30 02:17:18;;;;;;;4.05;3.65;;;;;;;;;;5071173;28;20379;-78
2022/07/30 02:19:44;;;;;;;4.68;3.80;;;;;;;;;;5074688;28;20079;-78
2022/07/30 02:22:13;;;;;;;5.32;3.50;;;;;;;;;;5056926;28;20032;-78
2022/07/30 02:24:41;;;;;;;3.97;3.58;;;;;;;;;;5072932;28;20033;-77
2022/07/30 02:27:10;;;;;;;4.17;3.50;;;;;;;;;;5051306;28;20175;-79
2022/07/30 02:29:37;;;;;;;4.43;3.72;;;;;;;;;;5053296;28;20085;-78
2022/07/30 02:32:08;;;;;;;4.88;3.70;;;;;;;;;;5052727;28;20479;-78
2022/07/30 02:34:35;;;;;;;6.65;3.97;;;;;;;;;;5085577;28;20037;-78
2022/07/30 02:37:02;;;;;;;4.50;3.78;;;;;;;;;;5052476;28;20025;-78
2022/07/30 02:39:29;;;;;;;3.97;3.65;;;;;;;;;;5084347;28;20037;-78
2022/07/30 02:41:56;;;;;;;4.87;4.20;;;;;;;;;;5084393;28;20525;-78
2022/07/30 02:44:23;;;;;;;4.85;3.63;;;;;;;;;;5052459;28;20116;-78
2022/07/30 02:46:49;;;;;;;7.88;3.92;;;;;;;;;;5050269;28;20125;-77
2022/07/30 02:49:16;;;;;;;5.07;3.70;;;;;;;;;;5084802;28;20037;-78
2022/07/30 02:51:43;;;;;;;4.07;3.63;;;;;;;;;;5083980;28;20041;-78
2022/07/30 02:54:09;;;;;;;6.93;4.13;;;;;;;;;;5052940;28;20478;-77
2022/07/30 02:56:36;;;;;;;4.57;4.03;;;;;;;;;;5083513;28;20039;-78
2022/07/30 02:59:03;;;;;;;6.53;3.95;;;;;;;;;;5084605;28;20510;-78
2022/07/30 03:01:31;;;;;;;6.60;4.10;;;;;;;;;;5083763;28;20466;-78
2022/07/30 03:03:57;;;;;;;4.55;3.95;;;;;;;;;;5079116;28;20041;-77
2022/07/30 03:06:24;;;;;;;4.93;4.43;;;;;;;;;;5084927;28;20029;-77
2022/07/30 03:08:51;;;;;;;6.65;4.18;;;;;;;;;;5049641;28;20042;-78
2022/07/30 03:11:18;;;;;;;6.75;4.53;;;;;;;;;;5051045;28;20059;-78
2022/07/30 03:13:44;;;;;;;5.82;4.50;;;;;;;;;;5084727;28;20090;-77
2022/07/30 03:16:11;;;;;;;6.93;5.10;;;;;;;;;;5084555;28;20040;-78
2022/07/30 03:18:38;;;;;;;7.55;4.72;;;;;;;;;;5075099;28;20045;-77
2022/07/30 03:21:06;;;;;;;4.78;4.20;;;;;;;;;;5070776;28;20036;-79
2022/07/30 03:23:35;;;;;;;6.60;5.15;;;;;;;;;;5095784;28;20036;-79
2022/07/30 03:26:02;;;;;;;5.80;4.80;;;;;;;;;;5056601;28;20116;-78
2022/07/30 03:28:33;;;;;;;5.90;5.28;;;;;;;;;;5070256;28;20063;-79
2022/07/30 03:30:59;;;;;;;5.93;4.70;;;;;;;;;;5066966;28;20028;-77
2022/07/30 03:33:25;;;;;;;5.40;4.78;;;;;;;;;;5071087;28;20071;-77
2022/07/30 03:35:54;;;;;;;5.63;4.75;;;;;;;;;;5070878;28;20035;-77
2022/07/30 03:38:22;;;;;;;5.13;4.63;;;;;;;;;;5087316;28;20097;-78
2022/07/30 03:40:48;;;;;;;5.30;4.72;;;;;;;;;;5070923;28;20621;-78
2022/07/30 03:43:15;;;;;;;5.00;4.15;;;;;;;;;;5087556;28;20032;-77
2022/07/30 03:45:42;;;;;;;6.05;4.70;;;;;;;;;;5071027;28;20479;-78
2022/07/30 03:48:09;;;;;;;6.00;4.22;;;;;;;;;;5071428;28;20043;-78
2022/07/30 03:50:36;;;;;;;4.50;4.10;;;;;;;;;;5071326;28;20067;-78
2022/07/30 03:53:10;;;;;;;4.70;4.30;;;;;;;;;;5087732;28;20036;-77
2022/07/30 03:55:36;;;;;;;5.43;4.63;;;;;;;;;;5070644;28;20025;-77
2022/07/30 03:58:02;;;;;;;5.32;4.60;;;;;;;;;;5072326;28;20037;-77
2022/07/30 04:00:28;;;;;;;7.22;5.10;;;;;;;;;;5070434;28;20368;-78
2022/07/30 04:02:55;;;;;;;6.43;5.07;;;;;;;;;;5087310;28;20036;-77
2022/07/30 04:05:21;;;;;;;6.00;4.75;;;;;;;;;;5087222;28;20414;-77
2022/07/30 04:07:47;;;;;;;5.00;4.50;;;;;;;;;;5087254;28;20032;-78
2022/07/30 04:10:14;;;;;;;6.75;5.13;;;;;;;;;;5071344;28;20036;-78
2022/07/30 04:12:40;;;;;;;5.97;4.65;;;;;;;;;;5071774;28;20051;-77
2022/07/30 04:15:06;;;;;;;6.60;4.65;;;;;;;;;;5070016;28;20513;-78
2022/07/30 04:17:36;;;;;;;6.60;4.40;;;;;;;;;;5085872;28;20041;-78
2022/07/30 04:20:06;;;;;;;5.47;4.70;;;;;;;;;;5033156;28;20246;-78
2022/07/30 04:22:33;;;;;;;5.63;4.53;;;;;;;;;;5033664;28;20033;-78
2022/07/30 04:25:01;;;;;;;5.43;4.60;;;;;;;;;;5051058;28;20060;-78
2022/07/30 04:27:29;;;;;;;6.43;5.50;;;;;;;;;;5034245;28;20036;-78
2022/07/30 04:29:55;;;;;;;9.18;5.55;;;;;;;;;;5035769;28;20041;-78
2022/07/30 04:32:21;;;;;;;6.75;4.68;;;;;;;;;;5067053;28;20029;-77
2022/07/30 04:34:51;;;;;;;6.90;5.10;;;;;;;;;;5054711;28;20421;-77
2022/07/30 04:37:18;;;;;;;6.80;4.88;;;;;;;;;;5046398;28;20047;-78
2022/07/30 04:39:45;;;;;;;7.47;5.05;;;;;;;;;;5084859;28;20039;-78
2022/07/30 04:42:11;;;;;;;9.25;5.35;;;;;;;;;;5045642;28;20043;-78
2022/07/30 04:44:37;;;;;;;7.15;5.53;;;;;;;;;;5056525;28;20111;-77
2022/07/30 04:47:03;;;;;;;7.38;5.28;;;;;;;;;;5061246;28;20090;-77
2022/07/30 04:49:29;;;;;;;5.55;5.05;;;;;;;;;;5044311;28;20033;-77
2022/07/30 04:51:56;;;;;;;6.80;5.47;;;;;;;;;;5054826;28;20036;-78
2022/07/30 04:54:23;;;;;;;6.22;5.50;;;;;;;;;;5036512;28;20037;-78
2022/07/30 04:56:50;;;;;;;6.53;5.35;;;;;;;;;;5053938;28;20036;-78
2022/07/30 04:59:17;;;;;;;8.20;6.07;;;;;;;;;;5055079;28;20102;-78
2022/07/30 05:01:45;;;;;;;9.25;6.10;;;;;;;;;;5044678;28;20039;-78
2022/07/30 05:04:12;;;;;;;8.53;5.63;;;;;;;;;;5074435;28;20471;-78
2022/07/30 05:06:38;;;;;;;10.95;7.13;;;;;;;;;;5074271;28;20116;-78
2022/07/30 05:09:05;;;;;;;12.65;8.32;;;;;;;;;;5057008;28;20552;-77
2022/07/30 05:11:31;;;;;;;12.70;8.27;;;;;;;;;;5057023;28;20033;-78
2022/07/30 05:13:56;;;;;;;12.68;8.43;;;;;;;;;;5074748;28;20047;-78
2022/07/30 05:16:23;;;;;;;16.58;9.77;;;;;;;;;;5052471;28;20024;-78
2022/07/30 05:18:49;;;;;;;17.38;9.32;;;;;;;;;;5065060;28;20044;-78
2022/07/30 05:21:15;;;;;;;16.60;8.75;;;;;;;;;;5073840;28;20028;-78
2022/07/30 05:23:41;;;;;;;19.20;11.85;;;;;;;;;;5075180;28;20037;-78
2022/07/30 05:26:07;;;;;;;21.42;11.57;;;;;;;;;;5072741;28;20032;-77
2022/07/30 05:28:33;;;;;;;17.48;8.73;;;;;;;;;;5073242;28;20041;-79
2022/07/30 05:30:59;;;;;;;20.00;10.75;;;;;;;;;;5073672;28;20115;-78
2022/07/30 05:33:25;;;;;;;19.75;10.85;;;;;;;;;;5058919;28;20131;-79
2022/07/30 05:35:51;;;;;;;19.17;10.90;;;;;;;;;;5055232;28;20039;-78
2022/07/30 05:38:17;;;;;;;17.63;10.07;;;;;;;;;;5073942;28;20039;-79
2022/07/30 05:40:45;;;;;;;21.95;11.80;;;;;;;;;;5071565;28;20032;-78
2022/07/30 05:43:11;;;;;;;19.45;10.90;;;;;;;;;;5073202;28;20025;-78
2022/07/30 05:45:37;;;;;;;23.35;14.13;;;;;;;;;;5056186;28;20036;-78
2022/07/30 05:48:03;;;;;;;23.40;14.02;;;;;;;;;;5054849;28;20494;-78
2022/07/30 05:50:29;;;;;;;24.25;13.10;;;;;;;;;;5056206;28;20501;-78
2022/07/30 05:52:57;;;;;;;23.73;12.45;;;;;;;;;;5059196;28;20025;-78
2022/07/30 05:55:23;;;;;;;22.60;12.27;;;;;;;;;;5090279;28;20051;-78
2022/07/30 05:57:49;;;;;;;21.00;11.75;;;;;;;;;;5073734;28;20479;-78
2022/07/30 06:00:15;;;;;;;26.42;14.20;;;;;;;;;;5067849;28;20024;-78
2022/07/30 06:02:41;;;;;;;22.83;13.35;;;;;;;;;;5068840;28;20039;-79
2022/07/30 06:05:07;;;;;;;24.15;14.18;;;;;;;;;;5055195;28;20078;-77
2022/07/30 06:07:33;;;;;;;23.08;13.15;;;;;;;;;;5073804;28;20501;-79
2022/07/30 06:10:00;;;;;;;25.58;15.00;;;;;;;;;;5071634;28;20099;-78
2022/07/30 06:12:30;;;;;;;26.90;14.40;;;;;;;;;;5058220;28;20024;-79
2022/07/30 06:14:56;;;;;;;23.42;14.30;;;;;;;;;;5073677;28;20103;-77
2022/07/30 06:17:22;;;;;;;25.25;14.68;;;;;;;;;;5088252;28;20028;-78
2022/07/30 06:19:49;;;;;;;21.90;14.20;;;;;;;;;;5074156;28;20036;-79
2022/07/30 06:22:15;;;;;;;22.40;14.40;;;;;;;;;;5068770;28;20036;-78
2022/07/30 06:24:41;;;;;;;20.42;12.85;;;;;;;;;;5088698;28;20059;-78
2022/07/30 06:27:07;;;;;;;24.65;14.65;;;;;;;;;;5087792;28;20368;-78
2022/07/30 06:29:33;;;;;;;21.42;13.68;;;;;;;;;;5089303;28;20083;-77
2022/07/30 06:31:59;;;;;;;22.50;13.88;;;;;;;;;;5071668;28;20430;-78
2022/07/30 06:34:25;;;;;;;22.27;14.63;;;;;;;;;;5072767;28;20094;-78
2022/07/30 06:36:52;;;;;;;25.40;13.82;;;;;;;;;;5071011;28;20027;-78
2022/07/30 06:39:18;;;;;;;22.45;13.73;;;;;;;;;;5072757;28;20023;-78
2022/07/30 06:41:44;;;;;;;21.58;13.27;;;;;;;;;;5087663;28;20036;-78
2022/07/30 06:44:10;;;;;;;24.80;15.88;;;;;;;;;;5093419;28;20107;-78
2022/07/30 06:46:36;;;;;;;21.60;14.20;;;;;;;;;;5073870;28;20055;-78
2022/07/30 06:49:02;;;;;;;23.42;15.18;;;;;;;;;;5075115;28;20040;-78
2022/07/30 06:51:28;;;;;;;23.98;13.82;;;;;;;;;;5070041;28;20029;-78
2022/07/30 06:53:54;;;;;;;22.38;13.77;;;;;;;;;;5092989;28;20036;-78
2022/07/30 06:56:20;;;;;;;24.30;14.80;;;;;;;;;;5052903;28;20115;-77
2022/07/30 06:58:46;;;;;;;20.88;13.80;;;;;;;;;;5086935;28;20028;-78
2022/07/30 07:01:12;;;;;;;20.75;13.63;;;;;;;;;;5087493;28;20032;-78
2022/07/30 07:03:38;;;;;;;18.85;11.70;;;;;;;;;;5054006;28;20025;-78
2022/07/30 07:06:04;;;;;;;19.17;11.77;;;;;;;;;;5087567;28;20056;-77
2022/07/30 07:08:30;;;;;;;18.75;12.10;;;;;;;;;;5087728;28;20040;-78
2022/07/30 07:10:57;;;;;;;16.52;12.65;;;;;;;;;;5087762;28;20032;-78
2022/07/30 07:13:22;;;;;;;18.73;12.23;;;;;;;;;;5072365;28;20029;-78
2022/07/30 07:15:48;;;;;;;16.85;10.65;;;;;;;;;;5068893;28;20427;-78
2022/07/30 07:18:14;;;;;;;17.83;13.00;;;;;;;;;;5065449;28;20102;-79
2022/07/30 07:20:42;;;;;;;17.60;11.68;;;;;;;;;;5087729;28;20478;-78
2022/07/30 07:23:08;;;;;;;16.10;9.68;;;;;;;;;;5101236;28;20038;-79
2022/07/30 07:25:34;;;;;;;16.15;11.00;;;;;;;;;;5054873;28;20028;-79
2022/07/30 07:28:00;;;;;;;17.02;12.13;;;;;;;;;;5059189;28;20199;-79
2022/07/30 07:30:26;;;;;;;15.50;10.20;;;;;;;;;;5070763;28;20123;-80
2022/07/30 07:32:52;;;;;;;14.43;10.95;;;;;;;;;;5084559;28;20090;-80
2022/07/30 07:35:18;;;;;;;15.27;11.57;;;;;;;;;;5069264;28;20040;-80
2022/07/30 07:37:44;;;;;;;15.30;10.55;;;;;;;;;;5071711;28;20063;-78
2022/07/30 07:40:10;;;;;;;16.55;10.38;;;;;;;;;;5098966;28;20350;-80
2022/07/30 07:42:36;;;;;;;12.73;9.43;;;;;;;;;;5055199;28;20120;-80
2022/07/30 07:45:02;;;;;;;15.70;11.90;;;;;;;;;;5053592;28;20175;-81
2022/07/30 07:47:28;;;;;;;17.02;11.82;;;;;;;;;;5086566;28;20526;-79
2022/07/30 07:49:55;;;;;;;13.07;9.60;;;;;;;;;;5071508;28;20043;-78
2022/07/30 07:52:20;;;;;;;14.55;11.15;;;;;;;;;;5073333;28;20432;-79
2022/07/30 07:54:46;;;;;;;12.65;9.70;;;;;;;;;;5073329;28;20028;-79
2022/07/30 07:57:12;;;;;;;19.85;12.82;;;;;;;;;;5083003;28;20050;-79
2022/07/30 07:59:39;;;;;;;16.92;11.68;;;;;;;;;;5071303;28;20412;-78
2022/07/30 08:02:04;;;;;;;15.80;10.40;;;;;;;;;;5085777;28;20033;-79
2022/07/30 08:04:31;;;;;;;12.23;8.68;;;;;;;;;;5087461;28;20082;-80
2022/07/30 08:06:57;;;;;;;14.88;11.05;;;;;;;;;;5085709;28;20461;-79
2022/07/30 08:09:23;;;;;;;15.85;10.65;;;;;;;;;;5087192;28;20376;-79
2022/07/30 08:11:49;;;;;;;11.85;8.60;;;;;;;;;;5076933;28;20028;-80
2022/07/30 08:14:15;;;;;;;14.70;9.98;;;;;;;;;;5070804;28;20033;-79
2022/07/30 08:16:41;;;;;;;14.90;11.38;;;;;;;;;;5074008;28;20490;-79
2022/07/30 08:19:07;;;;;;;14.48;9.23;;;;;;;;;;5056247;28;20047;-79
2022/07/30 08:21:33;;;;;;;14.13;10.18;;;;;;;;;;5067522;28;20116;-79
2022/07/30 08:23:59;;;;;;;12.15;9.50;;;;;;;;;;5068552;28;20531;-78
2022/07/30 08:26:25;;;;;;;15.00;10.48;;;;;;;;;;5068403;28;20033;-78
2022/07/30 08:28:51;;;;;;;9.23;6.88;;;;;;;;;;5069735;28;20045;-79
2022/07/30 08:31:17;;;;;;;12.77;9.13;;;;;;;;;;5069940;28;20116;-79
2022/07/30 08:33:43;;;;;;;12.27;7.70;;;;;;;;;;5074106;28;20047;-78
2022/07/30 08:36:10;;;;;;;11.20;7.57;;;;;;;;;;5072586;28;20072;-79
2022/07/30 08:38:38;;;;;;;13.40;8.73;;;;;;;;;;5071504;28;20079;-79
2022/07/30 08:41:04;;;;;;;11.85;9.20;;;;;;;;;;5069966;28;20029;-79
2022/07/30 08:43:30;;;;;;;13.10;8.07;;;;;;;;;;5069540;28;20375;-78
2022/07/30 08:45:58;;;;;;;11.15;7.28;;;;;;;;;;5070687;28;20021;-78
2022/07/30 08:48:24;;;;;;;11.23;7.78;;;;;;;;;;5073662;28;20071;-79
2022/07/30 08:50:50;;;;;;;15.93;8.93;;;;;;;;;;5036205;28;20036;-78
2022/07/30 08:53:17;;;;;;;11.65;7.63;;;;;;;;;;5069112;28;20115;-78
2022/07/30 08:55:43;;;;;;;10.02;6.95;;;;;;;;;;5056502;28;20040;-78
2022/07/30 08:58:28;;;;;;;12.38;8.75;;;;;;;;;;5067323;28;20037;-78
2022/07/30 09:00:54;;;;;;;11.73;7.93;;;;;;;;;;5042088;28;20029;-79
2022/07/30 09:03:21;;;;;;;8.95;6.75;;;;;;;;;;5049858;28;20508;-78
2022/07/30 09:05:47;;;;;;;8.60;5.75;;;;;;;;;;5043148;28;20029;-78
2022/07/30 09:08:12;;;;;;;11.50;7.18;;;;;;;;;;5046151;28;20041;-78
2022/07/30 09:10:40;;;;;;;9.45;6.75;;;;;;;;;;5087093;28;20028;-78
2022/07/30 09:13:21;;;;;;;8.70;6.32;;;;;;;;;;5056871;28;20036;-81
2022/07/30 09:15:47;;;;;;;10.05;7.03;;;;;;;;;;5087167;28;20028;-79
2022/07/30 09:18:13;;;;;;;10.85;7.15;;;;;;;;;;5055545;28;20494;-78
2022/07/30 09:20:39;;;;;;;8.88;6.28;;;;;;;;;;5072955;28;20448;-79
2022/07/30 09:23:06;;;;;;;9.25;7.07;;;;;;;;;;5073015;28;20032;-78
2022/07/30 09:25:36;;;;;;;7.32;5.75;;;;;;;;;;5072901;28;20421;-80
2022/07/30 09:28:03;;;;;;;8.63;5.85;;;;;;;;;;5073381;28;20039;-79
2022/07/30 09:30:49;;;;;;;9.40;5.40;;;;;;;;;;5073282;28;20044;-79
2022/07/30 09:33:30;;;;;;;10.88;7.50;;;;;;;;;;5068514;28;20025;-78
2022/07/30 09:35:56;;;;;;;11.70;6.45;;;;;;;;;;5073398;28;20071;-79
2022/07/30 09:38:22;;;;;;;7.03;5.00;;;;;;;;;;5057156;28;20057;-79
2022/07/30 09:40:52;;;;;;;7.70;5.57;;;;;;;;;;5068894;28;20549;-79
2022/07/30 09:43:18;;;;;;;10.20;7.32;;;;;;;;;;5068829;28;20060;-78
2022/07/30 09:45:52;;;;;;;9.88;7.75;;;;;;;;;;5069036;28;20036;-78
2022/07/30 09:48:28;;;;;;;9.20;6.50;;;;;;;;;;5069762;28;20140;-78
2022/07/30 09:50:54;;;;;;;7.65;5.85;;;;;;;;;;5069827;28;20025;-79
2022/07/30 09:53:21;;;;;;;10.70;7.82;;;;;;;;;;5067412;28;20497;-79
2022/07/30 09:55:47;;;;;;;8.40;5.75;;;;;;;;;;5074070;28;20021;-78
2022/07/30 09:58:13;;;;;;;11.60;6.75;;;;;;;;;;5072691;28;20059;-78
2022/07/30 10:00:40;;;;;;;8.10;6.55;;;;;;;;;;5073434;28;20029;-78
2022/07/30 10:03:20;;;;;;;9.75;6.30;;;;;;;;;;5088579;28;20090;-78
2022/07/30 10:05:53;;;;;;;7.57;5.38;;;;;;;;;;5073451;28;20082;-79
2022/07/30 10:08:20;;;;;;;11.77;7.78;;;;;;;;;;5089703;28;20131;-78
2022/07/30 10:10:46;;;;;;;8.43;6.20;;;;;;;;;;5072657;28;20025;-79
2022/07/30 10:13:13;;;;;;;11.75;7.18;;;;;;;;;;5073809;28;20028;-77
2022/07/30 10:15:40;;;;;;;9.98;7.55;;;;;;;;;;5069296;28;20029;-79
2022/07/30 10:18:06;;;;;;;9.25;6.72;;;;;;;;;;5087441;28;20148;-78
2022/07/30 10:20:32;;;;;;;8.23;5.25;;;;;;;;;;5065129;28;20462;-79
2022/07/30 10:22:58;;;;;;;8.68;5.43;;;;;;;;;;5073579;28;20067;-79
2022/07/30 10:25:25;;;;;;;8.43;5.40;;;;;;;;;;5066042;28;20116;-78
2022/07/30 10:27:52;;;;;;;7.80;4.80;;;;;;;;;;5073025;28;20033;-78
2022/07/30 10:30:18;;;;;;;10.35;5.57;;;;;;;;;;5073601;28;20060;-78
2022/07/30 10:32:45;;;;;;;6.50;4.40;;;;;;;;;;5061806;28;20068;-79
2022/07/30 10:35:12;;;;;;;6.10;4.53;;;;;;;;;;5054631;28;20032;-78
2022/07/30 10:37:42;;;;;;;7.55;4.20;;;;;;;;;;5072104;28;20058;-79
2022/07/30 10:40:12;;;;;;;6.82;4.93;;;;;;;;;;5088074;28;20063;-78
2022/07/30 10:42:53;;;;;;;6.05;3.85;;;;;;;;;;5087888;28;20123;-79
2022/07/30 10:45:26;;;;;;;9.45;7.47;;;;;;;;;;5073037;28;20033;-79
2022/07/30 10:47:54;;;;;;;5.15;4.38;;;;;;;;;;5088782;28;20025;-79
2022/07/30 10:50:25;;;;;;;6.43;4.70;;;;;;;;;;5088588;28;20483;-78
2022/07/30 10:52:51;;;;;;;7.85;5.30;;;;;;;;;;5088718;28;20032;-78
2022/07/30 10:55:21;;;;;;;6.05;4.45;;;;;;;;;;5073146;28;20032;-78
2022/07/30 10:57:57;;;;;;;5.72;4.40;;;;;;;;;;5071397;28;20035;-80
2022/07/30 11:00:24;;;;;;;9.43;5.07;;;;;;;;;;5087384;28;20032;-78
2022/07/30 11:03:13;;;;;;;5.22;3.63;;;;;;;;;;5087309;28;20041;-80
2022/07/30 11:05:39;;;;;;;7.47;4.60;;;;;;;;;;5047334;28;20028;-79
2022/07/30 11:08:24;;;;;;;6.82;4.60;;;;;;;;;;5088013;28;20131;-78
2022/07/30 11:10:50;;;;;;;5.38;3.78;;;;;;;;;;5088355;28;20029;-79
2022/07/30 11:13:16;;;;;;;6.38;4.10;;;;;;;;;;5092218;28;20086;-80
2022/07/30 11:15:58;;;;;;;6.35;3.88;;;;;;;;;;5071565;28;20029;-78
2022/07/30 11:18:25;;;;;;;5.82;4.07;;;;;;;;;;5069328;28;20482;-79
2022/07/30 11:21:10;;;;;;;5.10;3.33;;;;;;;;;;5054708;28;20127;-78
2022/07/30 11:23:37;;;;;;;8.43;4.88;;;;;;;;;;5071331;28;20028;-79
2022/07/30 11:26:03;;;;;;;5.90;3.92;;;;;;;;;;5053795;28;20033;-80
2022/07/30 11:28:39;;;;;;;4.90;4.40;;;;;;;;;;5072324;28;20045;-78
2022/07/30 11:31:25;;;;;;;7.75;4.05;;;;;;;;;;5054733;28;20028;-78
2022/07/30 11:33:51;;;;;;;6.25;4.50;;;;;;;;;;5050252;28;20489;-78
2022/07/30 11:36:17;;;;;;;5.32;4.72;;;;;;;;;;5036737;28;20030;-78
2022/07/30 11:38:50;;;;;;;4.82;3.53;;;;;;;;;;5049725;28;20076;-78
2022/07/30 11:41:16;;;;;;;4.40;3.33;;;;;;;;;;5044994;28;20036;-78
2022/07/30 11:43:42;;;;;;;5.30;3.72;;;;;;;;;;5064626;28;20360;-78
2022/07/30 11:46:09;;;;;;;4.72;3.47;;;;;;;;;;5059373;28;20383;-78
2022/07/30 11:48:36;;;;;;;4.25;2.92;;;;;;;;;;5051847;28;20048;-79
2022/07/30 11:51:03;;;;;;;6.22;3.20;;;;;;;;;;5051884;28;20447;-78
2022/07/30 11:53:29;;;;;;;4.05;3.60;;;;;;;;;;5067515;28;20124;-78
2022/07/30 11:55:59;;;;;;;3.95;3.53;;;;;;;;;;5075461;28;20103;-79
2022/07/30 11:58:34;;;;;;;4.40;3.15;;;;;;;;;;5039831;28;20060;-78
2022/07/30 12:01:04;;;;;;;5.03;3.70;;;;;;;;;;5064161;28;20021;-78
2022/07/30 12:03:30;;;;;;;4.10;3.13;;;;;;;;;;5051115;28;20043;-77
2022/07/30 12:06:03;;;;;;;5.68;3.05;;;;;;;;;;5033593;28;20028;-78
2022/07/30 12:08:29;;;;;;;3.53;2.97;;;;;;;;;;5067400;28;20060;-78
2022/07/30 12:10:59;;;;;;;3.60;3.10;;;;;;;;;;5050952;28;20029;-78
2022/07/30 12:13:25;;;;;;;2.92;2.63;;;;;;;;;;5052363;28;20148;-78
2022/07/30 12:15:52;;;;;;;3.65;2.60;;;;;;;;;;5066516;28;20459;-78
2022/07/30 12:18:30;;;;;;;2.92;2.60;;;;;;;;;;5072273;28;20131;-79
2022/07/30 12:20:57;;;;;;;3.40;3.10;;;;;;;;;;5087458;28;20105;-78
2022/07/30 12:23:24;;;;;;;2.75;2.20;;;;;;;;;;5086597;28;20028;-78
2022/07/30 12:25:50;;;;;;;2.65;2.22;;;;;;;;;;5086704;28;20462;-78
2022/07/30 12:28:26;;;;;;;2.70;2.03;;;;;;;;;;5087063;28;20045;-78
2022/07/30 12:30:53;;;;;;;4.25;2.30;;;;;;;;;;5071745;28;20029;-78
2022/07/30 12:33:20;;;;;;;2.25;2.05;;;;;;;;;;5086078;28;20562;-78
2022/07/30 12:35:47;;;;;;;2.17;1.98;;;;;;;;;;5071577;28;20079;-79
2022/07/30 12:38:13;;;;;;;2.20;1.70;;;;;;;;;;5083411;28;20033;-80
2022/07/30 12:40:53;;;;;;;2.17;1.88;;;;;;;;;;5071786;28;20086;-78
2022/07/30 12:43:39;;;;;;;2.85;1.55;;;;;;;;;;5070327;28;20108;-79
2022/07/30 12:46:05;;;;;;;2.35;1.50;;;;;;;;;;5070765;28;20037;-78
2022/07/30 12:48:31;;;;;;;2.35;1.65;;;;;;;;;;5087121;28;20106;-78
2022/07/30 12:51:03;;;;;;;2.88;1.60;;;;;;;;;;5071745;28;20116;-78
2022/07/30 12:53:29;;;;;;;3.38;1.50;;;;;;;;;;5085393;28;20040;-78
2022/07/30 12:56:09;;;;;;;2.17;1.63;;;;;;;;;;5071506;28;20067;-78
2022/07/30 12:58:37;;;;;;;2.97;1.45;;;;;;;;;;5072276;28;20039;-78
2022/07/30 13:01:04;;;;;;;2.95;1.50;;;;;;;;;;5070610;28;20474;-78
2022/07/30 13:03:38;;;;;;;1.58;1.48;;;;;;;;;;5080779;28;20033;-78
2022/07/30 13:06:11;;;;;;;1.52;1.42;;;;;;;;;;5058550;28;20487;-78
2022/07/30 13:08:47;;;;;;;3.00;1.50;;;;;;;;;;5035036;28;20079;-78
2022/07/30 13:11:13;;;;;;;3.25;1.30;;;;;;;;;;5057415;28;20537;-79
2022/07/30 13:13:39;;;;;;;2.45;1.48;;;;;;;;;;5083550;28;20394;-78
2022/07/30 13:16:06;;;;;;;1.42;1.33;;;;;;;;;;5070764;28;20033;-78
2022/07/30 13:18:33;;;;;;;2.60;1.30;;;;;;;;;;5074353;28;20475;-78
2022/07/30 13:21:00;;;;;;;1.55;1.20;;;;;;;;;;5053181;28;20398;-78
2022/07/30 13:23:27;;;;;;;1.58;1.02;;;;;;;;;;5053474;28;20044;-78
2022/07/30 13:25:53;;;;;;;2.03;1.38;;;;;;;;;;5053124;28;20360;-80
2022/07/30 13:28:19;;;;;;;2.47;1.60;;;;;;;;;;5053041;28;20204;-78
2022/07/30 13:30:45;;;;;;;2.53;1.52;;;;;;;;;;5052260;28;20142;-79
2022/07/30 13:33:11;;;;;;;2.30;1.60;;;;;;;;;;5066834;28;20041;-78
2022/07/30 13:35:37;;;;;;;1.65;1.45;;;;;;;;;;5049258;28;20500;-78
2022/07/30 13:38:05;;;;;;;1.85;1.27;;;;;;;;;;5052190;28;20139;-79
2022/07/30 13:40:31;;;;;;;1.63;1.40;;;;;;;;;;5052391;28;20033;-79
2022/07/30 13:42:58;;;;;;;1.77;1.45;;;;;;;;;;5053690;28;20455;-79
2022/07/30 13:45:23;;;;;;;2.35;1.52;;;;;;;;;;5053610;28;20029;-78
2022/07/30 13:47:52;;;;;;;1.40;1.30;;;;;;;;;;5052992;28;20521;-79
2022/07/30 13:50:18;;;;;;;2.05;1.60;;;;;;;;;;5053016;28;20041;-79
2022/07/30 13:52:44;;;;;;;2.92;1.55;;;;;;;;;;5053584;28;20033;-78
2022/07/30 13:55:10;;;;;;;2.70;1.80;;;;;;;;;;5085956;28;20114;-77
2022/07/30 13:57:36;;;;;;;2.83;1.50;;;;;;;;;;5052513;28;20086;-78
2022/07/30 14:00:04;;;;;;;2.10;1.75;;;;;;;;;;5051438;28;20025;-78
2022/07/30 14:02:30;;;;;;;3.55;1.80;;;;;;;;;;5051904;28;20037;-78
2022/07/30 14:04:56;;;;;;;3.17;1.88;;;;;;;;;;5052187;28;20033;-79
2022/07/30 14:07:23;;;;;;;2.50;1.40;;;;;;;;;;5051967;28;20044;-78
2022/07/30 14:09:48;;;;;;;1.52;1.38;;;;;;;;;;5051836;28;20044;-77
2022/07/30 14:12:14;;;;;;;2.28;1.67;;;;;;;;;;5052890;28;20025;-78
2022/07/30 14:14:40;;;;;;;3.42;1.88;;;;;;;;;;5053147;28;20078;-79
2022/07/30 14:17:07;;;;;;;2.20;1.80;;;;;;;;;;5052317;28;20044;-80
2022/07/30 14:19:33;;;;;;;3.17;1.95;;;;;;;;;;5055027;28;20043;-78
2022/07/30 14:21:59;;;;;;;3.17;1.77;;;;;;;;;;5089452;28;20083;-78
2022/07/30 14:24:25;;;;;;;1.95;1.60;;;;;;;;;;5088505;28;20056;-78
2022/07/30 14:26:51;;;;;;;2.38;1.88;;;;;;;;;;5088441;28;20025;-79
2022/07/30 14:29:17;;;;;;;1.85;1.70;;;;;;;;;;5089402;28;20040;-78
2022/07/30 14:31:43;;;;;;;2.80;1.77;;;;;;;;;;5092557;28;20035;-79
2022/07/30 14:34:09;;;;;;;3.35;1.90;;;;;;;;;;5073659;28;20070;-78
2022/07/30 14:36:36;;;;;;;2.00;1.80;;;;;;;;;;5103193;28;20037;-79
2022/07/30 14:39:03;;;;;;;3.00;1.98;;;;;;;;;;5089102;28;20039;-78
2022/07/30 14:41:30;;;;;;;3.58;1.90;;;;;;;;;;5073467;28;20032;-78